Milam, Texas
Current Conditions -  °F | °C
As of 6:56 PM on Friday 24 Oct 2014 (Local Time) from KAQV Reporting Station
Clear Clear  
Wind Chill: 62°   Ceiling: Unl
Heat Index: 62°   Visibility: 10mi
Dew Point: 55°   Wind: 0mph
Humidity: 78%   Direction: NA
Pressure: 30.1"   Gusts: NA
Location:  31.43°N, 93.85°W
Report Text: KAQV 242356Z AUTO 00000KT 10SM CLR 17/13 A3010 RMK AO2 SLP192 T01670128 10250 20167 51000
Loading
Personal Weather Stations






























Interactive Weather Map
Tropical Storm Tracking
New forecast layout! Learn more

10-Day Weather Forecast

Advertisements
Track Severe Weather on mobile